createdAt,value
2019-02-06T00:02:05.944Z,60.16
2019-02-06T00:04:53.470Z,60.36
2019-02-06T00:07:41.209Z,60.20
2019-02-06T00:10:28.829Z,59.90
2019-02-06T00:13:16.357Z,59.71
2019-02-06T00:16:04.017Z,59.68
2019-02-06T00:18:51.922Z,59.87
2019-02-06T00:21:39.594Z,59.86
2019-02-06T00:24:26.782Z,59.79
2019-02-06T00:27:14.097Z,59.70
2019-02-06T00:30:01.519Z,59.73
2019-02-06T00:32:49.347Z,59.81
2019-02-06T00:35:37.080Z,60.09
2019-02-06T00:38:25.528Z,61.12
2019-02-06T00:41:13.053Z,62.68
2019-02-06T00:44:00.477Z,62.49
2019-02-06T00:46:47.903Z,62.49
2019-02-06T00:49:35.532Z,62.63
2019-02-06T00:52:23.060Z,62.68
2019-02-06T00:55:11.408Z,63.35
2019-02-06T00:57:58.829Z,63.61
2019-02-06T01:00:46.047Z,63.44
2019-02-06T01:03:33.368Z,63.29
2019-02-06T01:06:20.587Z,63.93
2019-02-06T01:09:09.851Z,64.12
2019-02-06T01:11:56.866Z,64.93
2019-02-06T01:14:44.398Z,64.66
2019-02-06T01:17:31.615Z,64.40
2019-02-06T01:20:19.548Z,64.09
2019-02-06T01:23:06.973Z,63.89
2019-02-06T01:25:54.191Z,63.82
2019-02-06T01:28:42.031Z,63.57
2019-02-06T01:31:29.866Z,63.28
2019-02-06T01:34:16.975Z,63.25
2019-02-06T01:37:04.298Z,63.63
2019-02-06T01:39:51.725Z,65.54
2019-02-06T01:42:38.840Z,65.76
2019-02-06T01:45:26.471Z,65.92
2019-02-06T01:48:15.324Z,65.40
2019-02-06T01:51:02.444Z,65.81
2019-02-06T01:53:49.664Z,65.37
2019-02-06T01:56:37.287Z,65.10
2019-02-06T01:59:24.409Z,64.88
2019-02-06T02:02:12.034Z,64.37
2019-02-06T02:04:59.830Z,63.74
2019-02-06T02:07:48.619Z,63.49
2019-02-06T02:10:35.747Z,63.55
2019-02-06T02:13:23.270Z,63.69
2019-02-06T02:16:11.924Z,63.47
2019-02-06T02:18:59.152Z,63.03
2019-02-06T02:21:46.254Z,62.61
2019-02-06T02:24:33.579Z,61.83
2019-02-06T02:27:20.696Z,61.72
2019-02-06T02:30:14.154Z,61.74
2019-02-06T02:33:01.687Z,62.19
2019-02-06T02:35:49.322Z,62.48
2019-02-06T02:38:36.840Z,62.32
2019-02-06T02:41:24.574Z,63.08
2019-02-06T02:44:12.105Z,62.89
2019-02-06T02:46:59.748Z,62.49
2019-02-06T02:49:47.157Z,62.23
2019-02-06T02:52:34.894Z,62.09
2019-02-06T02:55:22.310Z,61.93
2019-02-06T02:58:09.550Z,61.47
2019-02-06T03:01:13.744Z,61.06
2019-02-06T03:04:03.113Z,61.15
2019-02-06T03:06:51.054Z,63.02
2019-02-06T03:09:38.385Z,64.97
2019-02-06T03:12:25.714Z,65.97
2019-02-06T03:15:13.847Z,66.07
2019-02-06T03:18:01.576Z,65.96
2019-02-06T03:20:48.884Z,66.05
2019-02-06T03:23:37.334Z,65.97
2019-02-06T03:26:24.455Z,65.80
2019-02-06T03:29:12.185Z,66.35
2019-02-06T03:31:59.412Z,66.21
2019-02-06T03:34:46.824Z,66.17
2019-02-06T03:37:34.910Z,66.26
2019-02-06T03:40:22.607Z,66.26
2019-02-06T03:43:11.142Z,66.05
2019-02-06T03:45:58.468Z,65.62
2019-02-06T03:48:46.300Z,65.31
2019-02-06T03:51:34.030Z,65.51
2019-02-06T03:54:21.353Z,65.55
2019-02-06T03:57:09.185Z,66.27
2019-02-06T03:59:56.817Z,66.42
2019-02-06T04:02:44.601Z,66.44
2019-02-06T04:05:32.540Z,66.43
2019-02-06T04:08:20.037Z,66.26
2019-02-06T04:11:07.534Z,65.60
2019-02-06T04:13:54.777Z,65.18
2019-02-06T04:16:42.485Z,64.98
2019-02-06T04:19:30.524Z,64.85
2019-02-06T04:22:17.741Z,65.18
2019-02-06T04:25:06.907Z,65.84
2019-02-06T04:27:54.328Z,65.80
2019-02-06T04:30:42.269Z,65.74
2019-02-06T04:33:29.495Z,65.60
2019-02-06T04:36:17.217Z,65.53
2019-02-06T04:39:07.903Z,65.73
2019-02-06T04:41:56.163Z,65.73
2019-02-06T04:44:43.788Z,65.92
2019-02-06T04:47:31.213Z,65.82
2019-02-06T04:50:19.099Z,65.79
2019-02-06T04:53:06.574Z,66.07
2019-02-06T04:55:54.104Z,65.84
2019-02-06T04:58:41.727Z,65.88
2019-02-06T05:01:29.049Z,66.14
2019-02-06T05:04:16.578Z,66.29
2019-02-06T05:07:04.518Z,66.33
2019-02-06T05:09:51.837Z,67.66
2019-02-06T05:12:38.953Z,67.10
2019-02-06T05:15:26.476Z,67.00
2019-02-06T05:18:13.798Z,66.60
2019-02-06T05:21:01.532Z,66.65
2019-02-06T05:23:49.172Z,66.19
2019-02-06T05:26:36.479Z,66.01
2019-02-06T05:29:23.907Z,66.00
2019-02-06T05:32:10.926Z,65.81
2019-02-06T05:34:58.590Z,65.68
2019-02-06T05:37:45.871Z,65.88
2019-02-06T05:40:33.195Z,65.75
2019-02-06T05:43:20.411Z,65.20
2019-02-06T05:46:07.837Z,65.05
2019-02-06T05:48:54.958Z,65.03
2019-02-06T05:51:42.172Z,65.14
2019-02-06T05:54:29.699Z,65.26
2019-02-06T05:57:17.124Z,65.18
2019-02-06T06:00:17.052Z,65.75
2019-02-06T06:03:04.769Z,65.81
2019-02-06T06:05:52.298Z,65.83
2019-02-06T06:08:41.255Z,66.00
2019-02-06T06:11:28.884Z,65.31
2019-02-06T06:14:16.613Z,64.77
2019-02-06T06:17:04.345Z,64.40
2019-02-06T06:19:51.767Z,64.29
2019-02-06T06:22:39.398Z,64.29
2019-02-06T06:25:27.072Z,65.08
2019-02-06T06:28:14.858Z,64.75
2019-02-06T06:31:02.286Z,64.45
2019-02-06T06:33:50.450Z,63.93
2019-02-06T06:36:37.746Z,63.91
2019-02-06T06:39:24.875Z,64.29
2019-02-06T06:42:12.289Z,63.85
2019-02-06T06:44:59.634Z,63.24
2019-02-06T06:47:47.237Z,63.02
2019-02-06T06:50:34.099Z,62.87
2019-02-06T06:53:21.470Z,62.70
2019-02-06T06:56:09.100Z,63.05
2019-02-06T06:58:56.521Z,63.61
2019-02-06T07:01:44.458Z,63.21
2019-02-06T07:04:31.779Z,62.76
2019-02-06T07:07:19.661Z,63.21
2019-02-06T07:10:12.157Z,63.65
2019-02-06T07:12:58.969Z,63.63
2019-02-06T07:15:47.107Z,63.97
2019-02-06T07:18:34.429Z,64.86
2019-02-06T07:21:22.059Z,65.73
2019-02-06T07:24:09.586Z,65.33
2019-02-06T07:26:57.113Z,65.01
2019-02-06T07:29:44.231Z,65.02
2019-02-06T07:32:32.166Z,65.62
2019-02-06T07:35:19.894Z,66.04
2019-02-06T07:38:07.214Z,65.83
2019-02-06T07:40:54.436Z,65.88
2019-02-06T07:43:42.165Z,65.80
2019-02-06T07:46:29.692Z,65.68
2019-02-06T07:49:16.809Z,65.86
2019-02-06T07:52:04.266Z,65.78
2019-02-06T07:54:52.272Z,65.50
2019-02-06T07:57:39.694Z,65.21
2019-02-06T08:00:27.120Z,65.04
2019-02-06T08:03:14.235Z,65.00
2019-02-06T08:06:02.274Z,64.99
2019-02-06T08:08:50.006Z,64.94
2019-02-06T08:11:37.121Z,64.88
2019-02-06T08:14:24.750Z,64.79
2019-02-06T08:17:12.277Z,64.83
2019-02-06T08:19:59.707Z,64.82
2019-02-06T08:22:47.669Z,64.96
2019-02-06T08:25:35.373Z,64.90
2019-02-06T08:28:22.690Z,64.72
2019-02-06T08:31:09.812Z,64.61
2019-02-06T08:33:57.356Z,64.56
2019-02-06T08:36:44.764Z,64.56
2019-02-06T08:39:32.387Z,64.48
2019-02-06T08:42:20.018Z,64.42
2019-02-06T08:45:15.997Z,64.41
2019-02-06T08:48:03.360Z,64.39
2019-02-06T08:50:50.989Z,64.34
2019-02-06T08:53:38.551Z,64.32
2019-02-06T08:56:25.839Z,64.21
2019-02-06T08:59:13.143Z,64.14
2019-02-06T09:02:00.687Z,64.21
2019-02-06T09:04:55.428Z,63.73
2019-02-06T09:07:36.865Z,63.39
2019-02-06T09:10:26.956Z,62.78
2019-02-06T09:13:14.480Z,62.16
2019-02-06T09:16:02.930Z,61.75
2019-02-06T09:18:50.349Z,61.50
2019-02-06T09:21:38.388Z,61.29
2019-02-06T09:24:26.222Z,60.95
2019-02-06T09:27:13.652Z,60.82
2019-02-06T09:30:01.069Z,60.65
2019-02-06T09:32:48.426Z,60.32
2019-02-06T09:35:36.020Z,60.35
2019-02-06T09:38:23.350Z,60.33
2019-02-06T09:41:10.941Z,59.89
2019-02-06T09:43:59.361Z,59.87
2019-02-06T09:46:46.844Z,59.75
2019-02-06T09:49:34.817Z,59.40
2019-02-06T09:52:25.631Z,58.89
2019-02-06T09:55:11.572Z,57.70
2019-02-06T09:57:59.507Z,57.71
2019-02-06T10:00:47.139Z,57.70
2019-02-06T10:03:34.252Z,56.65
2019-02-06T10:06:21.882Z,56.17
2019-02-06T10:09:09.307Z,56.63
2019-02-06T10:11:57.045Z,56.30
2019-02-06T10:14:44.366Z,56.46
2019-02-06T10:17:31.989Z,56.33
2019-02-06T10:20:25.293Z,55.46
2019-02-06T10:23:12.891Z,55.21
2019-02-06T10:26:00.301Z,55.92
2019-02-06T10:28:47.932Z,55.52
2019-02-06T10:31:35.627Z,54.41
2019-02-06T10:34:22.883Z,54.73
2019-02-06T10:37:10.303Z,53.95
2019-02-06T10:39:58.712Z,53.98
2019-02-06T10:42:46.382Z,54.49
2019-02-06T10:45:33.906Z,54.00
2019-02-06T10:48:21.129Z,52.77
2019-02-06T10:51:09.376Z,53.69
2019-02-06T10:53:56.691Z,53.33
2019-02-06T10:56:44.219Z,53.34
2019-02-06T10:59:31.746Z,52.72
2019-02-06T11:02:19.275Z,52.36
2019-02-06T11:05:27.915Z,51.52
2019-02-06T11:08:15.520Z,51.43
2019-02-06T11:11:03.114Z,50.87
2019-02-06T11:13:50.778Z,50.96
2019-02-06T11:16:38.211Z,51.17
2019-02-06T11:19:25.263Z,51.68
2019-02-06T11:22:12.744Z,51.99
2019-02-06T11:25:00.145Z,50.91
2019-02-06T11:27:47.489Z,50.62
2019-02-06T11:30:37.454Z,50.92
2019-02-06T11:33:24.997Z,50.03
2019-02-06T11:36:23.550Z,49.43
2019-02-06T11:39:01.384Z,51.65
2019-02-06T11:41:48.620Z,51.25
2019-02-06T11:44:38.736Z,50.76
2019-02-06T11:47:26.316Z,51.26
2019-02-06T11:50:17.130Z,51.21
2019-02-06T11:53:05.446Z,50.61
2019-02-06T11:55:52.581Z,49.32
2019-02-06T11:58:40.314Z,49.48
2019-02-06T12:01:28.455Z,49.21
2019-02-06T12:04:16.083Z,50.15
2019-02-06T12:07:03.611Z,50.26
2019-02-06T12:09:51.169Z,49.67
2019-02-06T12:12:38.775Z,49.37
2019-02-06T12:15:26.395Z,48.88
2019-02-06T12:18:13.712Z,48.81
2019-02-06T12:21:01.352Z,48.40
2019-02-06T12:23:49.383Z,48.57
2019-02-06T12:26:37.113Z,49.22
2019-02-06T12:29:24.851Z,48.50
2019-02-06T12:32:12.371Z,48.26
2019-02-06T12:34:59.889Z,47.88
2019-02-06T12:37:47.421Z,47.54
2019-02-06T12:40:35.155Z,47.36
2019-02-06T12:43:22.994Z,47.52
2019-02-06T12:46:09.901Z,47.90
2019-02-06T12:48:57.432Z,47.91
2019-02-06T12:51:45.158Z,47.08
2019-02-06T12:54:32.890Z,47.67
2019-02-06T12:57:20.334Z,48.97
2019-02-06T13:00:23.715Z,48.57
2019-02-06T13:03:12.202Z,47.90
2019-02-06T13:05:59.688Z,47.95
2019-02-06T13:08:46.699Z,47.37
2019-02-06T13:11:34.123Z,47.53
2019-02-06T13:14:21.553Z,46.97
2019-02-06T13:17:09.200Z,47.77
2019-02-06T13:19:56.601Z,48.16
2019-02-06T13:22:44.437Z,48.23
2019-02-06T13:25:31.655Z,48.80
2019-02-06T13:28:18.983Z,48.63
2019-02-06T13:31:06.347Z,48.70
2019-02-06T13:33:55.363Z,48.80
2019-02-06T13:36:42.480Z,48.20
2019-02-06T13:39:30.311Z,48.58
2019-02-06T13:42:18.349Z,47.38
2019-02-06T13:45:12.331Z,47.95
2019-02-06T13:47:59.694Z,48.03
2019-02-06T13:50:53.318Z,47.77
2019-02-06T13:53:42.437Z,48.08
2019-02-06T13:56:29.625Z,48.30
2019-02-06T13:59:17.007Z,48.36
2019-02-06T14:02:05.402Z,47.53
2019-02-06T14:04:53.214Z,47.75
2019-02-06T14:07:40.730Z,47.71
2019-02-06T14:10:30.258Z,47.98
2019-02-06T14:13:18.940Z,47.30
2019-02-06T14:16:07.612Z,46.89
2019-02-06T14:18:54.519Z,47.25
2019-02-06T14:21:41.946Z,46.37
2019-02-06T14:24:32.371Z,46.79
2019-02-06T14:27:35.234Z,46.63
2019-02-06T14:30:37.702Z,46.76
2019-02-06T14:33:44.891Z,47.27
2019-02-06T14:36:47.366Z,47.44
2019-02-06T14:39:49.758Z,47.00
2019-02-06T14:43:01.447Z,46.58
2019-02-06T14:46:10.466Z,46.90
2019-02-06T14:49:15.944Z,47.09
2019-02-06T14:52:28.325Z,47.02
2019-02-06T14:55:18.869Z,47.99
2019-02-06T14:58:25.046Z,49.13
2019-02-06T15:01:31.857Z,49.22
2019-02-06T15:04:38.864Z,48.45
2019-02-06T15:07:35.891Z,48.17
2019-02-06T15:10:26.287Z,48.24
2019-02-06T15:13:29.174Z,49.15
2019-02-06T15:16:37.899Z,48.60
2019-02-06T15:19:36.892Z,48.09
2019-02-06T15:22:42.458Z,48.64
2019-02-06T15:25:48.088Z,48.59
2019-02-06T15:28:45.042Z,49.02
2019-02-06T15:31:41.472Z,48.01
2019-02-06T15:34:41.183Z,49.27
2019-02-06T15:37:48.476Z,49.53
2019-02-06T15:40:54.130Z,49.74
2019-02-06T15:43:46.773Z,50.31
2019-02-06T15:47:02.154Z,50.71
2019-02-06T15:50:11.960Z,50.92
2019-02-06T15:56:17.510Z,50.82
2019-02-06T15:59:11.037Z,52.42
2019-02-06T16:09:47.245Z,50.81
2019-02-06T16:12:49.183Z,51.06
2019-02-06T16:15:54.151Z,52.39
2019-02-06T16:18:44.559Z,51.92
2019-02-06T16:21:34.730Z,52.34
2019-02-06T16:24:25.634Z,52.61
2019-02-06T16:27:24.943Z,52.63
2019-02-06T16:30:31.918Z,52.06
2019-02-06T16:33:31.426Z,52.76
2019-02-06T16:36:37.179Z,51.77
2019-02-06T16:39:34.336Z,52.35
2019-02-06T16:42:39.880Z,53.13
2019-02-06T16:45:41.744Z,52.77
2019-02-06T16:48:38.586Z,52.98
2019-02-06T16:51:28.890Z,52.30
2019-02-06T16:54:31.563Z,51.95
2019-02-06T16:57:28.099Z,52.01
2019-02-06T17:00:27.502Z,51.51
2019-02-06T17:03:41.960Z,51.49
2019-02-06T17:06:49.888Z,51.49
2019-02-06T17:10:10.575Z,51.91
2019-02-06T17:13:18.075Z,52.05
2019-02-06T17:16:20.745Z,53.03
2019-02-06T17:19:28.143Z,53.16
2019-02-06T17:22:38.498Z,53.39
2019-02-06T17:25:41.392Z,53.39
2019-02-06T17:28:32.001Z,53.44
2019-02-06T17:31:31.492Z,53.67
2019-02-06T17:34:30.894Z,53.57
2019-02-06T17:37:38.289Z,53.30
2019-02-06T17:40:35.029Z,53.46
2019-02-06T17:43:51.857Z,53.79
2019-02-06T17:46:59.672Z,54.19
2019-02-06T17:50:08.269Z,54.19
2019-02-06T17:53:07.567Z,53.56
2019-02-06T17:55:55.196Z,53.33
2019-02-06T17:58:43.031Z,53.19
2019-02-06T18:01:31.681Z,53.06
2019-02-06T18:04:19.312Z,52.88
2019-02-06T18:07:07.350Z,52.83
2019-02-06T18:09:55.290Z,53.09
2019-02-06T18:12:42.711Z,52.99
2019-02-06T18:15:30.338Z,52.91
2019-02-06T18:18:18.016Z,52.66
2019-02-06T18:21:05.817Z,52.23
2019-02-06T18:23:53.839Z,52.84
2019-02-06T18:26:42.191Z,53.00
2019-02-06T18:29:29.614Z,53.73
2019-02-06T18:32:17.448Z,53.44
2019-02-06T18:35:07.286Z,53.39
2019-02-06T18:37:54.866Z,52.75
2019-02-06T18:40:44.432Z,52.91
2019-02-06T18:43:31.751Z,53.27
2019-02-06T18:46:19.599Z,53.53
2019-02-06T18:49:07.419Z,52.80
2019-02-06T18:51:57.865Z,52.60
2019-02-06T18:54:45.234Z,52.90
2019-02-06T18:57:32.966Z,52.98
2019-02-06T19:00:32.406Z,53.58
2019-02-06T19:03:29.429Z,53.46
2019-02-06T19:06:18.862Z,53.07
2019-02-06T19:09:08.791Z,53.09
2019-02-06T19:11:56.614Z,54.09
2019-02-06T19:14:44.339Z,53.37
2019-02-06T19:17:31.761Z,52.68
2019-02-06T19:20:19.964Z,52.26
2019-02-06T19:23:07.645Z,51.88
2019-02-06T19:25:55.277Z,51.94
2019-02-06T19:28:42.786Z,51.92
2019-02-06T19:31:30.110Z,51.80
2019-02-06T19:34:17.574Z,51.84
2019-02-06T19:37:05.186Z,51.59
2019-02-06T19:39:52.391Z,52.01
2019-02-06T19:42:40.013Z,52.19
2019-02-06T19:45:27.565Z,52.58
2019-02-06T19:48:18.770Z,52.68
2019-02-06T19:51:04.433Z,52.56
2019-02-06T19:53:52.986Z,52.65
2019-02-06T19:56:40.512Z,52.59
2019-02-06T19:59:27.833Z,53.02
2019-02-06T20:02:15.974Z,53.39
2019-02-06T20:05:03.397Z,53.42
2019-02-06T20:07:50.615Z,53.38
2019-02-06T20:10:40.921Z,53.35
2019-02-06T20:13:28.331Z,53.13
2019-02-06T20:16:16.060Z,53.51
2019-02-06T20:19:03.591Z,53.25
2019-02-06T20:21:51.127Z,53.04
2019-02-06T20:24:38.134Z,53.35
2019-02-06T20:27:25.759Z,53.65
2019-02-06T20:30:16.152Z,53.46
2019-02-06T20:33:03.274Z,53.05
2019-02-06T20:35:50.282Z,52.46
2019-02-06T20:38:37.813Z,52.61
2019-02-06T20:41:25.440Z,53.01
2019-02-06T20:44:13.273Z,53.28
2019-02-06T20:47:00.697Z,54.30
2019-02-06T20:49:48.621Z,54.30
2019-02-06T20:52:36.261Z,54.17
2019-02-06T20:55:23.787Z,53.69
2019-02-06T20:58:11.416Z,53.53
2019-02-06T21:01:00.172Z,53.34
2019-02-06T21:03:48.068Z,53.17
2019-02-06T21:06:35.224Z,53.12
2019-02-06T21:09:22.963Z,53.13
2019-02-06T21:12:10.379Z,52.99
2019-02-06T21:14:58.011Z,52.96
2019-02-06T21:17:45.741Z,52.83
2019-02-06T21:20:33.576Z,52.78
2019-02-06T21:23:21.305Z,53.38
2019-02-06T21:26:08.731Z,53.67
2019-02-06T21:28:56.258Z,53.50
2019-02-06T21:31:44.189Z,53.66
2019-02-06T21:34:32.027Z,53.73
2019-02-06T21:37:20.371Z,54.05
2019-02-06T21:40:14.246Z,54.36
2019-02-06T21:43:01.774Z,54.66
2019-02-06T21:45:48.891Z,54.80
2019-02-06T21:48:36.516Z,54.72
2019-02-06T21:51:23.633Z,54.69
2019-02-06T21:54:11.366Z,54.71
2019-02-06T21:56:59.097Z,54.55
2019-02-06T21:59:46.623Z,54.40
2019-02-06T22:02:33.740Z,54.42
2019-02-06T22:05:21.162Z,54.35
2019-02-06T22:08:08.998Z,54.46
2019-02-06T22:10:56.294Z,54.25
2019-02-06T22:13:54.722Z,54.77
2019-02-06T22:16:32.394Z,54.51
2019-02-06T22:19:19.971Z,54.32
2019-02-06T22:22:07.449Z,54.19
2019-02-06T22:24:54.566Z,54.08
2019-02-06T22:27:42.503Z,54.09
2019-02-06T22:30:30.845Z,53.99
2019-02-06T22:33:18.474Z,54.07
2019-02-06T22:36:05.797Z,54.35
2019-02-06T22:38:53.663Z,54.68
2019-02-06T22:41:41.156Z,54.49
2019-02-06T22:44:28.586Z,54.80
2019-02-06T22:47:15.800Z,54.92
2019-02-06T22:50:03.125Z,55.13
2019-02-06T22:52:50.545Z,55.17
2019-02-06T22:55:37.763Z,55.28
2019-02-06T22:58:25.597Z,55.73
2019-02-06T23:01:24.660Z,55.76
2019-02-06T23:04:12.227Z,55.67
2019-02-06T23:07:00.056Z,55.83
2019-02-06T23:09:47.686Z,55.73
2019-02-06T23:12:34.906Z,55.74
2019-02-06T23:15:22.436Z,56.08
2019-02-06T23:18:10.438Z,55.50
2019-02-06T23:20:58.710Z,54.99
2019-02-06T23:23:45.828Z,54.79
2019-02-06T23:26:33.769Z,54.54
2019-02-06T23:29:21.294Z,54.33
2019-02-06T23:32:08.821Z,54.35
2019-02-06T23:34:56.551Z,54.48
2019-02-06T23:37:44.178Z,54.62
2019-02-06T23:40:31.601Z,55.13
2019-02-06T23:43:18.922Z,55.45
2019-02-06T23:46:06.654Z,55.77
2019-02-06T23:48:54.179Z,55.88
2019-02-06T23:51:41.604Z,55.76
2019-02-06T23:54:29.028Z,55.83
2019-02-06T23:57:16.353Z,55.73
